createdAt,value
2022-10-18T00:00:15.419Z,27.45
2022-10-18T00:03:04.653Z,25.73
2022-10-18T00:05:55.652Z,24.33
2022-10-18T00:08:44.672Z,22.77
2022-10-18T00:11:33.732Z,23.13
2022-10-18T00:14:23.411Z,22.80
2022-10-18T00:17:12.690Z,22.85
2022-10-18T00:20:02.318Z,27.65
2022-10-18T00:22:52.322Z,25.90
2022-10-18T00:25:41.416Z,22.70
2022-10-18T00:28:30.721Z,24.08
2022-10-18T00:31:27.911Z,23.60
2022-10-18T00:34:17.886Z,22.92
2022-10-18T00:37:07.112Z,21.63
2022-10-18T00:39:57.482Z,21.48
2022-10-18T00:42:46.067Z,21.73
2022-10-18T00:45:35.341Z,22.33
2022-10-18T00:48:25.279Z,20.15
2022-10-18T00:51:16.668Z,20.35
2022-10-18T00:54:06.512Z,20.75
2022-10-18T00:56:57.579Z,20.00
2022-10-18T00:59:48.254Z,21.40
2022-10-18T01:02:37.654Z,22.63
2022-10-18T01:05:27.851Z,23.25
2022-10-18T01:08:49.902Z,20.77
2022-10-18T01:12:08.724Z,22.00
2022-10-18T01:15:06.609Z,22.55
2022-10-18T01:18:07.237Z,22.95
2022-10-18T01:21:19.133Z,22.30
2022-10-18T01:24:52.894Z,23.38
2022-10-18T01:27:54.122Z,19.98
2022-10-18T01:31:00.146Z,24.20
2022-10-18T01:33:53.871Z,22.23
2022-10-18T01:36:45.640Z,20.52
2022-10-18T01:39:38.840Z,20.52
2022-10-18T01:42:28.515Z,21.80
2022-10-18T01:45:18.567Z,21.85
2022-10-18T01:48:10.755Z,22.58
2022-10-18T01:51:01.764Z,23.00
2022-10-18T01:53:51.326Z,22.60
2022-10-18T01:56:48.804Z,25.83
2022-10-18T01:59:45.862Z,26.40
2022-10-18T02:02:44.398Z,23.77
2022-10-18T02:05:42.820Z,22.13
2022-10-18T02:08:39.257Z,22.75
2022-10-18T02:11:30.089Z,22.50
2022-10-18T02:14:21.441Z,21.63
2022-10-18T02:17:13.951Z,24.85
2022-10-18T02:20:03.953Z,23.83
2022-10-18T02:22:57.118Z,24.33
2022-10-18T02:25:46.571Z,25.33
2022-10-18T02:28:36.556Z,21.98
2022-10-18T02:31:28.862Z,21.75
2022-10-18T02:34:22.511Z,23.05
2022-10-18T02:37:13.110Z,21.58
2022-10-18T02:40:05.478Z,22.10
2022-10-18T02:42:58.166Z,21.52
2022-10-18T02:45:46.875Z,23.50
2022-10-18T02:48:36.273Z,24.15
2022-10-18T02:51:25.322Z,22.23
2022-10-18T02:54:14.491Z,21.10
2022-10-18T02:57:05.550Z,21.02
2022-10-18T02:59:55.210Z,21.40
2022-10-18T03:02:44.689Z,19.95
2022-10-18T03:05:33.810Z,21.23
2022-10-18T03:08:22.898Z,21.30
2022-10-18T03:11:11.988Z,19.92
2022-10-18T03:14:03.073Z,19.73
2022-10-18T03:16:52.647Z,19.80
2022-10-18T03:19:42.217Z,18.58
2022-10-18T03:22:31.898Z,19.90
2022-10-18T03:25:21.313Z,20.77
2022-10-18T03:28:10.485Z,19.40
2022-10-18T03:31:04.554Z,21.35
2022-10-18T03:33:53.970Z,18.88
2022-10-18T03:36:42.715Z,18.92
2022-10-18T03:39:31.793Z,20.08
2022-10-18T03:42:20.902Z,18.65
2022-10-18T03:45:10.851Z,18.02
2022-10-18T03:48:01.692Z,19.15
2022-10-18T03:50:50.852Z,19.10
2022-10-18T03:53:39.972Z,18.70
2022-10-18T03:56:28.790Z,19.83
2022-10-18T03:59:17.872Z,18.63
2022-10-18T04:02:06.636Z,18.45
2022-10-18T04:04:58.982Z,17.88
2022-10-18T04:07:48.173Z,19.58
2022-10-18T04:10:39.088Z,17.80
2022-10-18T04:13:27.939Z,17.75
2022-10-18T04:16:17.167Z,17.48
2022-10-18T04:19:06.397Z,15.88
2022-10-18T04:21:57.362Z,18.60
2022-10-18T04:24:46.531Z,21.88
2022-10-18T04:27:35.725Z,19.35
2022-10-18T04:30:25.276Z,19.55
2022-10-18T04:33:14.058Z,19.98
2022-10-18T04:36:03.168Z,18.67
2022-10-18T04:38:53.499Z,17.92
2022-10-18T04:41:42.467Z,19.35
2022-10-18T04:44:31.198Z,16.35
2022-10-18T04:47:20.073Z,17.88
2022-10-18T04:50:09.849Z,16.98
2022-10-18T04:52:59.136Z,16.33
2022-10-18T04:55:51.044Z,18.35
2022-10-18T04:58:40.059Z,18.67
2022-10-18T05:01:29.654Z,20.02
2022-10-18T05:04:18.810Z,17.35
2022-10-18T05:07:08.684Z,18.73
2022-10-18T05:09:58.006Z,18.60
2022-10-18T05:12:48.530Z,17.73
2022-10-18T05:15:37.966Z,17.65
2022-10-18T05:18:28.037Z,19.60
2022-10-18T05:21:17.283Z,18.45
2022-10-18T05:24:06.710Z,18.80
2022-10-18T05:26:56.308Z,19.83
2022-10-18T05:29:47.076Z,16.15
2022-10-18T05:32:36.104Z,17.83
2022-10-18T05:35:25.210Z,16.33
2022-10-18T05:38:14.262Z,16.95
2022-10-18T05:41:07.386Z,17.70
2022-10-18T05:43:56.248Z,18.77
2022-10-18T05:46:46.980Z,17.52
2022-10-18T05:49:36.123Z,18.52
2022-10-18T05:52:25.423Z,18.13
2022-10-18T05:55:15.052Z,18.38
2022-10-18T05:58:05.300Z,18.85
2022-10-18T06:00:55.945Z,17.45
2022-10-18T06:03:46.747Z,15.90
2022-10-18T06:06:36.669Z,19.75
2022-10-18T06:09:26.035Z,17.67
2022-10-18T06:12:15.375Z,15.82
2022-10-18T06:15:05.037Z,16.30
2022-10-18T06:17:53.827Z,16.70
2022-10-18T06:20:44.609Z,17.73
2022-10-18T06:23:33.914Z,17.02
2022-10-18T06:26:23.296Z,14.98
2022-10-18T06:29:12.755Z,17.45
2022-10-18T06:32:02.138Z,16.23
2022-10-18T06:34:51.223Z,15.30
2022-10-18T06:40:37.800Z,16.33
2022-10-18T06:43:27.191Z,16.33
2022-10-18T06:46:16.317Z,16.42
2022-10-18T06:49:05.153Z,16.02
2022-10-18T06:51:55.722Z,15.60
2022-10-18T06:54:46.156Z,18.90
2022-10-18T06:57:35.362Z,15.75
2022-10-18T07:00:24.156Z,18.98
2022-10-18T07:03:13.502Z,19.13
2022-10-18T07:06:03.041Z,17.98
2022-10-18T07:08:54.113Z,17.63
2022-10-18T07:11:44.974Z,18.33
2022-10-18T07:14:34.120Z,17.80
2022-10-18T07:17:23.011Z,17.75
2022-10-18T07:20:12.053Z,17.40
2022-10-18T07:23:01.011Z,17.33
2022-10-18T07:25:50.415Z,19.08
2022-10-18T07:28:41.011Z,15.73
2022-10-18T07:31:30.718Z,16.02
2022-10-18T07:34:19.661Z,16.65
2022-10-18T07:37:08.434Z,15.15
2022-10-18T07:39:57.289Z,15.50
2022-10-18T07:42:46.255Z,14.80
2022-10-18T07:48:27.127Z,15.23
2022-10-18T07:51:16.586Z,13.98
2022-10-18T07:54:06.379Z,14.02
2022-10-18T07:56:55.371Z,14.77
2022-10-18T07:59:46.586Z,14.02
2022-10-18T08:02:37.540Z,14.13
2022-10-18T08:05:28.175Z,14.63
2022-10-18T08:08:17.475Z,14.65
2022-10-18T08:11:08.432Z,14.85
2022-10-18T08:13:57.816Z,15.30
2022-10-18T08:16:48.137Z,13.02
2022-10-18T08:19:44.625Z,13.57
2022-10-18T08:22:42.712Z,13.43
2022-10-18T08:25:32.368Z,17.65
2022-10-18T08:28:22.008Z,17.85
2022-10-18T08:31:13.960Z,18.88
2022-10-18T08:34:03.483Z,21.48
2022-10-18T08:36:54.052Z,20.20
2022-10-18T08:39:43.282Z,23.42
2022-10-18T08:42:46.017Z,21.95
2022-10-18T08:45:43.178Z,23.90
2022-10-18T08:48:37.119Z,22.20
2022-10-18T08:51:30.991Z,23.73
2022-10-18T08:54:28.455Z,25.27
2022-10-18T08:57:18.877Z,23.50
2022-10-18T09:00:16.501Z,21.30
2022-10-18T09:03:14.227Z,22.48
2022-10-18T09:06:11.273Z,22.30
2022-10-18T09:09:21.474Z,21.45
2022-10-18T09:12:31.040Z,25.13
2022-10-18T09:15:24.888Z,25.40
2022-10-18T09:18:32.720Z,23.98
2022-10-18T09:21:24.904Z,28.45
2022-10-18T09:24:16.377Z,26.88
2022-10-18T09:27:12.861Z,27.58
2022-10-18T09:30:11.828Z,29.25
2022-10-18T09:33:07.499Z,29.33
2022-10-18T09:35:59.162Z,30.55
2022-10-18T09:38:50.535Z,28.75
2022-10-18T09:41:42.560Z,31.38
2022-10-18T09:44:35.475Z,31.60
2022-10-18T09:47:28.099Z,32.83
2022-10-18T09:50:20.675Z,31.58
2022-10-18T09:53:14.254Z,30.58
2022-10-18T09:56:05.492Z,32.40
2022-10-18T09:58:54.952Z,32.00
2022-10-18T10:01:45.072Z,28.13
2022-10-18T10:04:35.402Z,29.67
2022-10-18T10:07:29.934Z,31.38
2022-10-18T10:10:24.819Z,29.80
2022-10-18T10:13:19.399Z,34.92
2022-10-18T10:16:08.719Z,28.92
2022-10-18T10:18:58.646Z,32.33
2022-10-18T10:21:50.018Z,32.60
2022-10-18T10:24:48.142Z,29.65
2022-10-18T10:27:43.815Z,28.08
2022-10-18T10:30:34.711Z,31.90
2022-10-18T10:33:35.850Z,30.92
2022-10-18T10:36:26.150Z,28.40
2022-10-18T10:39:21.208Z,28.98
2022-10-18T10:42:15.105Z,31.50
2022-10-18T10:45:04.435Z,36.92
2022-10-18T10:47:55.880Z,27.83
2022-10-18T10:51:05.691Z,34.60
2022-10-18T10:54:01.668Z,35.13
2022-10-18T10:56:59.407Z,31.50
2022-10-18T10:59:51.226Z,28.30
2022-10-18T11:02:42.100Z,34.10
2022-10-18T11:05:43.489Z,27.00
2022-10-18T11:08:38.727Z,31.35
2022-10-18T11:11:33.597Z,33.83
2022-10-18T11:14:27.710Z,26.63
2022-10-18T11:17:23.668Z,30.13
2022-10-18T11:20:21.555Z,25.35
2022-10-18T11:23:14.351Z,30.02
2022-10-18T11:26:23.068Z,30.88
2022-10-18T11:29:29.858Z,26.27
2022-10-18T11:32:27.925Z,30.48
2022-10-18T11:35:39.020Z,28.92
2022-10-18T11:38:35.640Z,31.13
2022-10-18T11:41:40.033Z,27.30
2022-10-18T11:44:38.188Z,28.08
2022-10-18T11:47:33.408Z,31.42
2022-10-18T11:50:31.400Z,25.60
2022-10-18T11:53:27.580Z,28.17
2022-10-18T11:56:22.944Z,29.85
2022-10-18T11:59:29.287Z,24.50
2022-10-18T12:02:43.810Z,24.33
2022-10-18T12:05:34.845Z,22.35
2022-10-18T12:08:29.509Z,34.85
2022-10-18T12:11:22.092Z,28.88
2022-10-18T12:14:22.603Z,24.50
2022-10-18T12:17:41.755Z,22.83
2022-10-18T12:20:33.292Z,27.65
2022-10-18T12:23:24.000Z,36.05
2022-10-18T12:26:13.904Z,33.75
2022-10-18T12:29:15.713Z,25.95
2022-10-18T12:32:08.178Z,23.17
2022-10-18T12:35:00.497Z,31.65
2022-10-18T12:38:12.811Z,29.35
2022-10-18T12:41:02.359Z,28.50
2022-10-18T12:43:56.331Z,34.58
2022-10-18T12:46:46.926Z,28.73
2022-10-18T12:49:41.353Z,25.85
2022-10-18T12:52:36.957Z,18.58
2022-10-18T12:55:34.220Z,25.15
2022-10-18T12:58:26.634Z,19.90
2022-10-18T13:01:15.904Z,23.45
2022-10-18T13:04:25.960Z,25.67
2022-10-18T13:07:25.048Z,22.10
2022-10-18T13:10:41.626Z,18.92
2022-10-18T13:13:50.865Z,20.02
2022-10-18T13:16:47.023Z,17.85
2022-10-18T13:19:49.062Z,28.50
2022-10-18T13:22:59.932Z,20.77
2022-10-18T13:25:58.212Z,23.35
2022-10-18T13:28:53.917Z,16.77
2022-10-18T13:31:47.675Z,14.70
2022-10-18T13:34:39.396Z,30.23
2022-10-18T13:37:30.362Z,26.63
2022-10-18T13:40:27.848Z,19.55
2022-10-18T13:43:54.013Z,19.70
2022-10-18T13:47:19.096Z,25.38
2022-10-18T13:50:34.857Z,25.35
2022-10-18T13:53:37.667Z,21.52
2022-10-18T13:56:50.771Z,19.05
2022-10-18T14:00:05.868Z,18.13
2022-10-18T14:03:37.911Z,18.05
2022-10-18T14:06:34.364Z,18.52
2022-10-18T14:09:40.242Z,25.60
2022-10-18T14:12:42.187Z,23.10
2022-10-18T14:15:36.822Z,17.88
2022-10-18T14:18:31.820Z,16.55
2022-10-18T14:21:30.226Z,23.48
2022-10-18T14:24:21.976Z,26.67
2022-10-18T14:27:29.029Z,28.63
2022-10-18T14:30:20.505Z,20.10
2022-10-18T14:33:26.019Z,22.00
2022-10-18T14:36:16.798Z,21.88
2022-10-18T14:39:06.493Z,16.52
2022-10-18T14:41:56.365Z,21.35
2022-10-18T14:44:54.211Z,20.88
2022-10-18T14:47:48.950Z,17.52
2022-10-18T14:50:39.764Z,16.02
2022-10-18T14:53:32.532Z,18.40
2022-10-18T14:56:26.780Z,17.35
2022-10-18T14:59:19.004Z,19.50
2022-10-18T15:02:15.051Z,20.33
2022-10-18T15:05:10.746Z,17.38
2022-10-18T15:08:01.090Z,19.95
2022-10-18T15:10:50.880Z,19.05
2022-10-18T15:13:46.962Z,18.77
2022-10-18T15:16:36.583Z,16.95
2022-10-18T15:19:35.515Z,25.20
2022-10-18T15:22:31.778Z,25.88
2022-10-18T15:25:29.313Z,16.23
2022-10-18T15:28:26.673Z,16.42
2022-10-18T15:31:23.042Z,21.05
2022-10-18T15:34:16.948Z,27.25
2022-10-18T15:37:17.208Z,18.08
2022-10-18T15:40:31.879Z,17.30
2022-10-18T15:43:40.818Z,19.08
2022-10-18T15:46:33.658Z,23.13
2022-10-18T15:49:52.655Z,25.23
2022-10-18T15:52:42.342Z,24.80
2022-10-18T15:55:49.417Z,16.33
2022-10-18T15:58:43.970Z,17.35
2022-10-18T16:01:37.257Z,13.82
2022-10-18T16:04:28.506Z,19.83
2022-10-18T16:07:17.630Z,16.58
2022-10-18T16:10:14.610Z,16.13
2022-10-18T16:13:05.232Z,18.45
2022-10-18T16:15:55.880Z,18.13
2022-10-18T16:18:45.079Z,16.80
2022-10-18T16:21:35.791Z,19.77
2022-10-18T16:24:25.297Z,18.83
2022-10-18T16:27:14.434Z,19.98
2022-10-18T16:30:12.380Z,18.33
2022-10-18T16:33:01.292Z,18.25
2022-10-18T16:35:50.756Z,17.52
2022-10-18T16:38:40.036Z,20.00
2022-10-18T16:41:29.434Z,17.58
2022-10-18T16:44:19.293Z,19.58
2022-10-18T16:47:12.603Z,15.77
2022-10-18T16:50:06.502Z,22.42
2022-10-18T16:52:56.263Z,22.05
2022-10-18T16:55:45.259Z,20.75
2022-10-18T16:58:34.904Z,18.63
2022-10-18T17:01:25.537Z,23.58
2022-10-18T17:04:16.141Z,26.60
2022-10-18T17:07:06.193Z,26.23
2022-10-18T17:09:54.943Z,23.48
2022-10-18T17:12:44.347Z,20.25
2022-10-18T17:15:35.118Z,19.33
2022-10-18T17:18:26.439Z,23.15
2022-10-18T17:21:17.447Z,22.20
2022-10-18T17:24:06.766Z,19.45
2022-10-18T17:26:56.335Z,19.17
2022-10-18T17:29:45.412Z,19.98
2022-10-18T17:32:34.847Z,18.73
2022-10-18T17:35:24.266Z,19.13
2022-10-18T17:38:14.814Z,20.27
2022-10-18T17:41:08.761Z,19.40
2022-10-18T17:43:57.972Z,28.73
2022-10-18T17:46:46.851Z,26.33
2022-10-18T17:49:35.926Z,29.48
2022-10-18T17:52:25.217Z,30.15
2022-10-18T17:55:16.757Z,28.42
2022-10-18T17:58:05.943Z,29.75
2022-10-18T18:00:55.303Z,32.95
2022-10-18T18:03:44.709Z,29.10
2022-10-18T18:06:35.292Z,29.63
2022-10-18T18:09:24.809Z,29.17
2022-10-18T18:12:15.493Z,26.15
2022-10-18T18:15:04.619Z,26.13
2022-10-18T18:17:58.059Z,25.38
2022-10-18T18:20:54.532Z,28.02
2022-10-18T18:23:44.400Z,33.90
2022-10-18T18:26:33.887Z,35.50
2022-10-18T18:29:35.867Z,33.63
2022-10-18T18:32:27.981Z,31.75
2022-10-18T18:35:18.147Z,32.17
2022-10-18T18:38:07.721Z,30.90
2022-10-18T18:41:05.973Z,33.08
2022-10-18T18:43:56.740Z,30.85
2022-10-18T18:46:50.601Z,36.45
2022-10-18T18:49:39.960Z,34.90
2022-10-18T18:52:29.235Z,35.97
2022-10-18T18:55:17.971Z,32.97
2022-10-18T18:58:06.630Z,36.00
2022-10-18T19:00:55.090Z,35.85
2022-10-18T19:03:46.067Z,37.65
2022-10-18T19:06:36.702Z,38.25
2022-10-18T19:09:27.347Z,33.88
2022-10-18T19:12:20.501Z,36.17
2022-10-18T19:15:10.773Z,37.60
2022-10-18T19:17:59.550Z,37.42
2022-10-18T19:20:50.312Z,36.25
2022-10-18T19:23:39.525Z,37.40
2022-10-18T19:26:39.123Z,33.55
2022-10-18T19:29:28.571Z,33.38
2022-10-18T19:32:18.999Z,37.92
2022-10-18T19:35:08.949Z,36.38
2022-10-18T19:37:59.590Z,35.03
2022-10-18T19:40:52.960Z,30.55
2022-10-18T19:43:43.161Z,29.25
2022-10-18T19:46:32.161Z,35.83
2022-10-18T19:49:21.614Z,34.83
2022-10-18T19:52:12.577Z,38.42
2022-10-18T19:55:03.459Z,34.90
2022-10-18T19:57:52.747Z,36.58
2022-10-18T20:00:42.275Z,38.63
2022-10-18T20:03:31.816Z,39.10
2022-10-18T20:06:21.786Z,35.45
2022-10-18T20:09:14.751Z,37.95
2022-10-18T20:12:08.349Z,37.08
2022-10-18T20:14:57.722Z,36.35
2022-10-18T20:17:46.815Z,37.58
2022-10-18T20:20:37.155Z,35.97
2022-10-18T20:23:26.000Z,35.42
2022-10-18T20:26:20.534Z,37.97
2022-10-18T20:29:11.411Z,40.28
2022-10-18T20:32:01.153Z,37.42
2022-10-18T20:34:50.321Z,34.95
2022-10-18T20:37:39.837Z,37.00
2022-10-18T20:40:28.877Z,35.97
2022-10-18T20:43:18.392Z,35.05
2022-10-18T20:46:11.565Z,34.88
2022-10-18T20:49:00.742Z,33.90
2022-10-18T20:51:49.763Z,33.10
2022-10-18T20:54:39.232Z,37.08
2022-10-18T20:57:34.176Z,34.88
2022-10-18T21:00:26.015Z,33.85
2022-10-18T21:03:16.395Z,32.40
2022-10-18T21:06:11.288Z,32.92
2022-10-18T21:09:01.389Z,32.45
2022-10-18T21:11:54.127Z,35.40
2022-10-18T21:14:43.688Z,32.22
2022-10-18T21:17:33.066Z,35.75
2022-10-18T21:20:23.706Z,32.38
2022-10-18T21:23:12.595Z,35.63
2022-10-18T21:26:01.775Z,31.95
2022-10-18T21:28:51.688Z,34.97
2022-10-18T21:31:43.582Z,31.20
2022-10-18T21:34:33.006Z,34.47
2022-10-18T21:37:23.999Z,34.92
2022-10-18T21:40:13.973Z,31.83
2022-10-18T21:43:03.307Z,34.00
2022-10-18T21:45:58.533Z,33.65
2022-10-18T21:48:48.953Z,30.25
2022-10-18T21:51:37.989Z,32.90
2022-10-18T21:54:28.529Z,31.27
2022-10-18T21:57:17.739Z,32.38
2022-10-18T22:00:07.988Z,30.45
2022-10-18T22:03:08.153Z,28.15
2022-10-18T22:06:01.535Z,28.95
2022-10-18T22:08:52.265Z,29.30
2022-10-18T22:11:45.133Z,28.65
2022-10-18T22:14:34.702Z,30.00
2022-10-18T22:17:24.006Z,28.60
2022-10-18T22:20:14.047Z,29.02
2022-10-18T22:23:03.162Z,28.73
2022-10-18T22:25:52.123Z,30.88
2022-10-18T22:28:44.349Z,29.35
2022-10-18T22:31:35.866Z,26.77
2022-10-18T22:34:27.789Z,28.75
2022-10-18T22:37:17.125Z,28.55
2022-10-18T22:40:06.664Z,26.88
2022-10-18T22:42:55.704Z,27.70
2022-10-18T22:45:46.819Z,26.60
2022-10-18T22:48:36.740Z,23.00
2022-10-18T22:51:25.657Z,24.20
2022-10-18T22:54:14.798Z,24.20
2022-10-18T22:57:03.723Z,22.67
2022-10-18T22:59:52.838Z,24.95
2022-10-18T23:02:43.375Z,26.38
2022-10-18T23:05:32.679Z,23.73
2022-10-18T23:08:22.076Z,24.15
2022-10-18T23:11:11.062Z,21.88
2022-10-18T23:14:00.284Z,20.95
2022-10-18T23:16:49.695Z,23.38
2022-10-18T23:19:41.198Z,21.38
2022-10-18T23:22:30.484Z,19.42
2022-10-18T23:25:20.623Z,17.70
2022-10-18T23:28:09.721Z,17.60
2022-10-18T23:30:58.806Z,20.63
2022-10-18T23:33:48.910Z,17.45
2022-10-18T23:36:39.428Z,18.70
2022-10-18T23:39:28.815Z,18.48
2022-10-18T23:42:18.085Z,17.63
2022-10-18T23:45:08.883Z,18.00
2022-10-18T23:47:57.810Z,18.92
2022-10-18T23:50:47.035Z,18.55
2022-10-18T23:53:37.989Z,18.23
2022-10-18T23:56:27.631Z,19.08
2022-10-18T23:59:17.101Z,19.13
